CFL4 weather

Flesherton (Smithorrs Field)
Flesherton, Ontario, Canada

Public forecast

Using degrees Celsius for public forecast. Weather courtesy of forecast.io.

Closest aviation weather report (METAR) to Flesherton (Smithorrs Field)

Closest report is CFB Borden, 26.4 nm (49.0 km) E. Retrieved 2019/12/15 04:00 UTC (48 minutes ago):

CYBN 150400Z AUTO 28004KT 9SM OVC022 OVC051 01/M01 A2943 RMK SLP975

Closest aviation forecast (TAF) to Flesherton (Smithorrs Field)

Forecast is more than 6 hours old.

Closest forecast is CFB Borden, 26.4 nm (49.0 km) E. Retrieved 2019/12/14 18:33 UTC (10 hours ago):

TAF TAF CYBN 141730Z 1418/1506 32005KT 1/2SM -RA FG OVC002 TEMPO 1418/1506 6SM BR OVC020 BECMG 1418/1420 32010G22KT RMK FCST BASED ON AUTO OBS NXT FCST BY 150000Z